sensor_id;sensor_type;location;lat;lon;timestamp;temperature;humidity
85940;DHT22;76505;46.706;12.340;2024-03-02T00:00:59;8.7;63.9
85940;DHT22;76505;46.706;12.340;2024-03-02T00:01:59;8.7;63.8
85940;DHT22;76505;46.706;12.340;2024-03-02T00:03:00;8.7;64.0
85940;DHT22;76505;46.706;12.340;2024-03-02T00:03:59;8.7;63.7
85940;DHT22;76505;46.706;12.340;2024-03-02T00:04:59;8.7;63.9
85940;DHT22;76505;46.706;12.340;2024-03-02T00:05:59;8.7;63.8
85940;DHT22;76505;46.706;12.340;2024-03-02T00:06:59;8.7;63.7
85940;DHT22;76505;46.706;12.340;2024-03-02T00:08:00;8.8;63.5
85940;DHT22;76505;46.706;12.340;2024-03-02T00:08:59;8.8;63.6
85940;DHT22;76505;46.706;12.340;2024-03-02T00:09:59;8.7;63.6
85940;DHT22;76505;46.706;12.340;2024-03-02T00:11:01;8.7;63.6
85940;DHT22;76505;46.706;12.340;2024-03-02T00:12:00;8.8;63.7
85940;DHT22;76505;46.706;12.340;2024-03-02T00:13:00;8.7;64.0
85940;DHT22;76505;46.706;12.340;2024-03-02T00:13:59;8.7;63.7
85940;DHT22;76505;46.706;12.340;2024-03-02T00:15:01;8.7;63.8
85940;DHT22;76505;46.706;12.340;2024-03-02T00:15:59;8.7;63.9
85940;DHT22;76505;46.706;12.340;2024-03-02T00:16:59;8.7;64.0
85940;DHT22;76505;46.706;12.340;2024-03-02T00:17:59;8.7;64.0
85940;DHT22;76505;46.706;12.340;2024-03-02T00:19:02;8.7;63.9
85940;DHT22;76505;46.706;12.340;2024-03-02T00:19:59;8.7;63.7
85940;DHT22;76505;46.706;12.340;2024-03-02T00:21:00;8.7;63.7
85940;DHT22;76505;46.706;12.340;2024-03-02T00:22:00;8.7;63.5
85940;DHT22;76505;46.706;12.340;2024-03-02T00:23:03;8.7;63.5
85940;DHT22;76505;46.706;12.340;2024-03-02T00:24:00;8.7;63.5
85940;DHT22;76505;46.706;12.340;2024-03-02T00:25:00;8.7;63.4
85940;DHT22;76505;46.706;12.340;2024-03-02T00:26:00;8.7;63.4
85940;DHT22;76505;46.706;12.340;2024-03-02T00:26:59;8.7;63.5
85940;DHT22;76505;46.706;12.340;2024-03-02T00:27:59;8.6;63.6
85940;DHT22;76505;46.706;12.340;2024-03-02T00:28:59;8.6;63.6
85940;DHT22;76505;46.706;12.340;2024-03-02T00:30:01;8.7;63.3
85940;DHT22;76505;46.706;12.340;2024-03-02T00:31:02;8.6;63.3
85940;DHT22;76505;46.706;12.340;2024-03-02T00:32:01;8.6;63.5
85940;DHT22;76505;46.706;12.340;2024-03-02T00:32:59;8.6;63.8
85940;DHT22;76505;46.706;12.340;2024-03-02T00:34:01;8.6;63.7
85940;DHT22;76505;46.706;12.340;2024-03-02T00:34:59;8.6;63.6
85940;DHT22;76505;46.706;12.340;2024-03-02T00:36:01;8.6;63.6
85940;DHT22;76505;46.706;12.340;2024-03-02T00:37:00;8.6;63.6
85940;DHT22;76505;46.706;12.340;2024-03-02T00:38:04;8.6;63.6
85940;DHT22;76505;46.706;12.340;2024-03-02T00:38:59;8.6;63.6
85940;DHT22;76505;46.706;12.340;2024-03-02T00:39:59;8.6;63.5
85940;DHT22;76505;46.706;12.340;2024-03-02T00:41:02;8.7;63.7
85940;DHT22;76505;46.706;12.340;2024-03-02T00:41:59;8.6;63.5
85940;DHT22;76505;46.706;12.340;2024-03-02T00:42:59;8.7;63.3
85940;DHT22;76505;46.706;12.340;2024-03-02T00:44:00;8.6;63.5
85940;DHT22;76505;46.706;12.340;2024-03-02T00:44:59;8.6;63.5
85940;DHT22;76505;46.706;12.340;2024-03-02T00:45:59;8.6;63.6
85940;DHT22;76505;46.706;12.340;2024-03-02T00:47:00;8.6;63.6
85940;DHT22;76505;46.706;12.340;2024-03-02T00:47:59;8.6;63.6
85940;DHT22;76505;46.706;12.340;2024-03-02T00:49:00;8.6;63.3
85940;DHT22;76505;46.706;12.340;2024-03-02T00:50:00;8.6;63.4
85940;DHT22;76505;46.706;12.340;2024-03-02T00:50:59;8.6;63.4
85940;DHT22;76505;46.706;12.340;2024-03-02T00:51:59;8.6;63.3
85940;DHT22;76505;46.706;12.340;2024-03-02T00:53:02;8.5;63.9
85940;DHT22;76505;46.706;12.340;2024-03-02T00:54:01;8.4;64.4
85940;DHT22;76505;46.706;12.340;2024-03-02T00:54:59;8.4;64.6
85940;DHT22;76505;46.706;12.340;2024-03-02T00:56:01;8.3;64.8
85940;DHT22;76505;46.706;12.340;2024-03-02T00:56:59;8.4;64.5
85940;DHT22;76505;46.706;12.340;2024-03-02T00:57:59;8.4;64.6
85940;DHT22;76505;46.706;12.340;2024-03-02T00:58:59;8.4;64.5
85940;DHT22;76505;46.706;12.340;2024-03-02T00:59:59;8.4;64.2
85940;DHT22;76505;46.706;12.340;2024-03-02T01:00:59;8.4;64.3
85940;DHT22;76505;46.706;12.340;2024-03-02T01:01:59;8.5;64.2
85940;DHT22;76505;46.706;12.340;2024-03-02T01:03:00;8.5;64.0
85940;DHT22;76505;46.706;12.340;2024-03-02T01:03:59;8.4;63.9
85940;DHT22;76505;46.706;12.340;2024-03-02T01:04:59;8.5;64.0
85940;DHT22;76505;46.706;12.340;2024-03-02T01:05:59;8.4;63.9
85940;DHT22;76505;46.706;12.340;2024-03-02T01:06:59;8.4;64.1
85940;DHT22;76505;46.706;12.340;2024-03-02T01:07:59;8.4;64.1
85940;DHT22;76505;46.706;12.340;2024-03-02T01:08:59;8.5;64.2
85940;DHT22;76505;46.706;12.340;2024-03-02T01:09:59;8.5;64.0
85940;DHT22;76505;46.706;12.340;2024-03-02T01:10:59;8.5;64.0
85940;DHT22;76505;46.706;12.340;2024-03-02T01:12:00;8.5;64.0
85940;DHT22;76505;46.706;12.340;2024-03-02T01:12:59;8.4;63.9
85940;DHT22;76505;46.706;12.340;2024-03-02T01:13:59;8.4;63.8
85940;DHT22;76505;46.706;12.340;2024-03-02T01:14:59;8.5;63.9
85940;DHT22;76505;46.706;12.340;2024-03-02T01:16:00;8.5;63.9
85940;DHT22;76505;46.706;12.340;2024-03-02T01:16:59;8.5;63.8
85940;DHT22;76505;46.706;12.340;2024-03-02T01:18:01;8.4;63.8
85940;DHT22;76505;46.706;12.340;2024-03-02T01:18:59;8.4;64.0
85940;DHT22;76505;46.706;12.340;2024-03-02T01:19:59;8.4;64.1
85940;DHT22;76505;46.706;12.340;2024-03-02T01:20:59;8.4;63.9
85940;DHT22;76505;46.706;12.340;2024-03-02T01:22:00;8.4;64.0
85940;DHT22;76505;46.706;12.340;2024-03-02T01:22:59;8.4;64.1
85940;DHT22;76505;46.706;12.340;2024-03-02T01:23:59;8.4;64.2
85940;DHT22;76505;46.706;12.340;2024-03-02T01:24:59;8.5;64.0
85940;DHT22;76505;46.706;12.340;2024-03-02T01:25:59;8.4;63.9
85940;DHT22;76505;46.706;12.340;2024-03-02T01:26:59;8.4;63.9
85940;DHT22;76505;46.706;12.340;2024-03-02T01:27:59;8.5;64.0
85940;DHT22;76505;46.706;12.340;2024-03-02T01:28:59;8.4;63.8
85940;DHT22;76505;46.706;12.340;2024-03-02T01:30:00;8.5;63.7
85940;DHT22;76505;46.706;12.340;2024-03-02T01:30:59;8.5;63.7
85940;DHT22;76505;46.706;12.340;2024-03-02T01:32:00;8.4;63.6
85940;DHT22;76505;46.706;12.340;2024-03-02T01:33:01;8.4;63.7
85940;DHT22;76505;46.706;12.340;2024-03-02T01:33:59;8.4;63.6
85940;DHT22;76505;46.706;12.340;2024-03-02T01:34:59;8.4;63.9
85940;DHT22;76505;46.706;12.340;2024-03-02T01:35:59;8.4;64.0
85940;DHT22;76505;46.706;12.340;2024-03-02T01:36:59;8.3;63.9
85940;DHT22;76505;46.706;12.340;2024-03-02T01:37:59;8.4;64.0
85940;DHT22;76505;46.706;12.340;2024-03-02T01:38:59;8.3;64.0
85940;DHT22;76505;46.706;12.340;2024-03-02T01:39:59;8.3;64.0
85940;DHT22;76505;46.706;12.340;2024-03-02T01:40:59;8.3;64.0
85940;DHT22;76505;46.706;12.340;2024-03-02T01:41:59;8.3;64.0
85940;DHT22;76505;46.706;12.340;2024-03-02T01:42:59;8.3;63.8
85940;DHT22;76505;46.706;12.340;2024-03-02T01:43:59;8.3;63.9
85940;DHT22;76505;46.706;12.340;2024-03-02T01:44:59;8.3;63.8
85940;DHT22;76505;46.706;12.340;2024-03-02T01:45:59;8.3;63.9
85940;DHT22;76505;46.706;12.340;2024-03-02T01:46:59;8.2;64.0
85940;DHT22;76505;46.706;12.340;2024-03-02T01:47:59;8.3;64.0
85940;DHT22;76505;46.706;12.340;2024-03-02T01:48:59;8.2;64.1
85940;DHT22;76505;46.706;12.340;2024-03-02T01:49:59;8.2;64.1
85940;DHT22;76505;46.706;12.340;2024-03-02T01:50:59;8.2;64.0
85940;DHT22;76505;46.706;12.340;2024-03-02T01:51:59;8.3;64.0
85940;DHT22;76505;46.706;12.340;2024-03-02T01:53:00;8.2;64.1
85940;DHT22;76505;46.706;12.340;2024-03-02T01:53:59;8.2;64.1
85940;DHT22;76505;46.706;12.340;2024-03-02T01:55:05;8.3;64.0
85940;DHT22;76505;46.706;12.340;2024-03-02T01:55:59;8.2;64.2
85940;DHT22;76505;46.706;12.340;2024-03-02T01:56:59;8.3;64.0
85940;DHT22;76505;46.706;12.340;2024-03-02T01:57:59;8.3;64.2
85940;DHT22;76505;46.706;12.340;2024-03-02T01:58:59;8.2;64.0
85940;DHT22;76505;46.706;12.340;2024-03-02T02:00:00;8.2;63.9
85940;DHT22;76505;46.706;12.340;2024-03-02T02:01:00;8.2;63.9
85940;DHT22;76505;46.706;12.340;2024-03-02T02:01:59;8.2;63.7
85940;DHT22;76505;46.706;12.340;2024-03-02T02:02:59;8.2;63.6
85940;DHT22;76505;46.706;12.340;2024-03-02T02:03:59;8.2;63.6
85940;DHT22;76505;46.706;12.340;2024-03-02T02:04:59;8.1;63.9
85940;DHT22;76505;46.706;12.340;2024-03-02T02:05:59;8.0;64.3
85940;DHT22;76505;46.706;12.340;2024-03-02T02:06:59;8.1;64.4
85940;DHT22;76505;46.706;12.340;2024-03-02T02:08:01;8.0;64.2
85940;DHT22;76505;46.706;12.340;2024-03-02T02:08:59;8.1;64.3
85940;DHT22;76505;46.706;12.340;2024-03-02T02:09:59;8.1;63.9
85940;DHT22;76505;46.706;12.340;2024-03-02T02:10:59;8.0;63.8
85940;DHT22;76505;46.706;12.340;2024-03-02T02:12:00;8.0;64.1
85940;DHT22;76505;46.706;12.340;2024-03-02T02:13:00;8.0;64.1
85940;DHT22;76505;46.706;12.340;2024-03-02T02:13:59;8.0;64.1
85940;DHT22;76505;46.706;12.340;2024-03-02T02:14:59;8.0;64.1
85940;DHT22;76505;46.706;12.340;2024-03-02T02:16:05;8.0;64.4
85940;DHT22;76505;46.706;12.340;2024-03-02T02:16:59;7.9;64.4
85940;DHT22;76505;46.706;12.340;2024-03-02T02:17:59;8.0;64.3
85940;DHT22;76505;46.706;12.340;2024-03-02T02:18:59;8.0;64.3
85940;DHT22;76505;46.706;12.340;2024-03-02T02:19:59;7.9;64.4
85940;DHT22;76505;46.706;12.340;2024-03-02T02:20:59;8.0;64.0
85940;DHT22;76505;46.706;12.340;2024-03-02T02:21:59;8.0;63.9
85940;DHT22;76505;46.706;12.340;2024-03-02T02:23:01;7.9;63.8
85940;DHT22;76505;46.706;12.340;2024-03-02T02:23:59;8.0;63.9
85940;DHT22;76505;46.706;12.340;2024-03-02T02:24:59;8.0;63.9
85940;DHT22;76505;46.706;12.340;2024-03-02T02:25:59;8.0;63.5
85940;DHT22;76505;46.706;12.340;2024-03-02T02:26:59;8.0;63.6
85940;DHT22;76505;46.706;12.340;2024-03-02T02:27:59;8.0;63.3
85940;DHT22;76505;46.706;12.340;2024-03-02T02:28:59;8.0;63.3
85940;DHT22;76505;46.706;12.340;2024-03-02T02:30:00;8.0;63.6
85940;DHT22;76505;46.706;12.340;2024-03-02T02:31:00;8.0;63.7
85940;DHT22;76505;46.706;12.340;2024-03-02T02:31:59;8.0;63.3
85940;DHT22;76505;46.706;12.340;2024-03-02T02:32:59;8.1;63.3
85940;DHT22;76505;46.706;12.340;2024-03-02T02:33:59;8.0;63.5
85940;DHT22;76505;46.706;12.340;2024-03-02T02:35:00;8.0;63.5
85940;DHT22;76505;46.706;12.340;2024-03-02T02:35:59;7.9;63.5
85940;DHT22;76505;46.706;12.340;2024-03-02T02:36:59;8.0;63.7
85940;DHT22;76505;46.706;12.340;2024-03-02T02:37:59;7.9;63.5
85940;DHT22;76505;46.706;12.340;2024-03-02T02:39:01;7.9;63.6
85940;DHT22;76505;46.706;12.340;2024-03-02T02:39:59;7.9;63.5
85940;DHT22;76505;46.706;12.340;2024-03-02T02:40:59;7.9;63.6
85940;DHT22;76505;46.706;12.340;2024-03-02T02:42:01;7.9;63.4
85940;DHT22;76505;46.706;12.340;2024-03-02T02:43:00;7.9;63.4
85940;DHT22;76505;46.706;12.340;2024-03-02T02:43:59;7.9;63.5
85940;DHT22;76505;46.706;12.340;2024-03-02T02:44:59;7.9;63.5
85940;DHT22;76505;46.706;12.340;2024-03-02T02:45:59;7.8;63.7
85940;DHT22;76505;46.706;12.340;2024-03-02T02:46:59;7.7;63.6
85940;DHT22;76505;46.706;12.340;2024-03-02T02:48:00;7.8;63.6
85940;DHT22;76505;46.706;12.340;2024-03-02T02:48:59;7.7;63.8
85940;DHT22;76505;46.706;12.340;2024-03-02T02:49:59;7.7;63.7
85940;DHT22;76505;46.706;12.340;2024-03-02T02:50:59;7.7;63.6
85940;DHT22;76505;46.706;12.340;2024-03-02T02:51:59;7.7;63.6
85940;DHT22;76505;46.706;12.340;2024-03-02T02:52:59;7.7;63.6
85940;DHT22;76505;46.706;12.340;2024-03-02T02:53:59;7.7;63.6
85940;DHT22;76505;46.706;12.340;2024-03-02T02:54:59;7.8;63.2
85940;DHT22;76505;46.706;12.340;2024-03-02T02:55:59;7.7;63.4
85940;DHT22;76505;46.706;12.340;2024-03-02T02:57:00;7.7;63.6
85940;DHT22;76505;46.706;12.340;2024-03-02T02:57:59;7.7;63.4
85940;DHT22;76505;46.706;12.340;2024-03-02T02:58:59;7.7;63.0
85940;DHT22;76505;46.706;12.340;2024-03-02T02:59:59;7.6;63.1
85940;DHT22;76505;46.706;12.340;2024-03-02T03:00:59;7.7;63.5
85940;DHT22;76505;46.706;12.340;2024-03-02T03:01:59;7.6;63.8
85940;DHT22;76505;46.706;12.340;2024-03-02T03:02:59;7.6;63.8
85940;DHT22;76505;46.706;12.340;2024-03-02T03:03:59;7.6;63.4
85940;DHT22;76505;46.706;12.340;2024-03-02T03:04:59;7.5;63.4
85940;DHT22;76505;46.706;12.340;2024-03-02T03:05:59;7.6;63.7
85940;DHT22;76505;46.706;12.340;2024-03-02T03:06:59;7.6;64.0
85940;DHT22;76505;46.706;12.340;2024-03-02T03:07:59;7.6;63.7
85940;DHT22;76505;46.706;12.340;2024-03-02T03:08:59;7.6;63.5
85940;DHT22;76505;46.706;12.340;2024-03-02T03:09:59;7.6;63.5
85940;DHT22;76505;46.706;12.340;2024-03-02T03:10:59;7.5;63.8
85940;DHT22;76505;46.706;12.340;2024-03-02T03:11:59;7.5;64.2
85940;DHT22;76505;46.706;12.340;2024-03-02T03:12:59;7.5;64.0
85940;DHT22;76505;46.706;12.340;2024-03-02T03:14:00;7.4;63.8
85940;DHT22;76505;46.706;12.340;2024-03-02T03:15:00;7.5;63.6
85940;DHT22;76505;46.706;12.340;2024-03-02T03:15:59;7.4;63.5
85940;DHT22;76505;46.706;12.340;2024-03-02T03:16:59;7.4;63.9
85940;DHT22;76505;46.706;12.340;2024-03-02T03:17:59;7.4;63.9
85940;DHT22;76505;46.706;12.340;2024-03-02T03:18:59;7.4;63.8
85940;DHT22;76505;46.706;12.340;2024-03-02T03:19:59;7.4;63.9
85940;DHT22;76505;46.706;12.340;2024-03-02T03:20:59;7.4;63.7
85940;DHT22;76505;46.706;12.340;2024-03-02T03:21:59;7.4;63.8
85940;DHT22;76505;46.706;12.340;2024-03-02T03:22:59;7.3;63.7
85940;DHT22;76505;46.706;12.340;2024-03-02T03:23:59;7.3;63.5
85940;DHT22;76505;46.706;12.340;2024-03-02T03:25:00;7.4;63.7
85940;DHT22;76505;46.706;12.340;2024-03-02T03:25:59;7.4;63.3
85940;DHT22;76505;46.706;12.340;2024-03-02T03:26:59;7.3;63.4
85940;DHT22;76505;46.706;12.340;2024-03-02T03:27:59;7.3;63.5
85940;DHT22;76505;46.706;12.340;2024-03-02T03:28:59;7.3;63.6
85940;DHT22;76505;46.706;12.340;2024-03-02T03:29:59;7.3;63.5
85940;DHT22;76505;46.706;12.340;2024-03-02T03:30:59;7.3;63.1
85940;DHT22;76505;46.706;12.340;2024-03-02T03:32:06;7.3;63.3
85940;DHT22;76505;46.706;12.340;2024-03-02T03:32:59;7.3;62.9
85940;DHT22;76505;46.706;12.340;2024-03-02T03:33:59;7.3;62.9
85940;DHT22;76505;46.706;12.340;2024-03-02T03:34:59;7.3;63.2
85940;DHT22;76505;46.706;12.340;2024-03-02T03:35:59;7.2;63.1
85940;DHT22;76505;46.706;12.340;2024-03-02T03:36:59;7.2;63.2
85940;DHT22;76505;46.706;12.340;2024-03-02T03:37:59;7.2;63.3
85940;DHT22;76505;46.706;12.340;2024-03-02T03:38:59;7.2;63.7
85940;DHT22;76505;46.706;12.340;2024-03-02T03:39:59;7.2;63.7
85940;DHT22;76505;46.706;12.340;2024-03-02T03:40:59;7.2;63.4
85940;DHT22;76505;46.706;12.340;2024-03-02T03:41:59;7.2;63.6
85940;DHT22;76505;46.706;12.340;2024-03-02T03:43:00;7.2;63.1
85940;DHT22;76505;46.706;12.340;2024-03-02T03:43:59;7.1;63.4
85940;DHT22;76505;46.706;12.340;2024-03-02T03:44:59;7.2;63.4
85940;DHT22;76505;46.706;12.340;2024-03-02T03:45:59;7.2;63.1
85940;DHT22;76505;46.706;12.340;2024-03-02T03:46:59;7.2;63.3
85940;DHT22;76505;46.706;12.340;2024-03-02T03:47:59;7.0;63.6
85940;DHT22;76505;46.706;12.340;2024-03-02T03:48:59;7.0;63.4
85940;DHT22;76505;46.706;12.340;2024-03-02T03:49:59;7.1;63.3
85940;DHT22;76505;46.706;12.340;2024-03-02T03:50:59;7.1;63.4
85940;DHT22;76505;46.706;12.340;2024-03-02T03:51:59;7.1;63.4
85940;DHT22;76505;46.706;12.340;2024-03-02T03:52:59;7.0;63.6
85940;DHT22;76505;46.706;12.340;2024-03-02T03:53:59;7.0;63.8
85940;DHT22;76505;46.706;12.340;2024-03-02T03:55:00;7.0;63.5
85940;DHT22;76505;46.706;12.340;2024-03-02T03:55:59;7.0;63.5
85940;DHT22;76505;46.706;12.340;2024-03-02T03:56:59;6.9;63.7
85940;DHT22;76505;46.706;12.340;2024-03-02T03:57:59;6.9;63.9
85940;DHT22;76505;46.706;12.340;2024-03-02T03:59:00;6.8;64.1
85940;DHT22;76505;46.706;12.340;2024-03-02T03:59:59;6.8;64.5
85940;DHT22;76505;46.706;12.340;2024-03-02T04:00:59;6.7;64.4
85940;DHT22;76505;46.706;12.340;2024-03-02T04:01:59;6.8;64.4
85940;DHT22;76505;46.706;12.340;2024-03-02T04:02:59;6.8;64.4
85940;DHT22;76505;46.706;12.340;2024-03-02T04:03:59;6.8;64.2
85940;DHT22;76505;46.706;12.340;2024-03-02T04:04:59;6.8;64.3
85940;DHT22;76505;46.706;12.340;2024-03-02T04:05:59;6.8;64.0
85940;DHT22;76505;46.706;12.340;2024-03-02T04:07:00;6.8;64.1
85940;DHT22;76505;46.706;12.340;2024-03-02T04:07:59;6.8;64.1
85940;DHT22;76505;46.706;12.340;2024-03-02T04:08:59;6.8;64.2
85940;DHT22;76505;46.706;12.340;2024-03-02T04:09:59;6.8;64.3
85940;DHT22;76505;46.706;12.340;2024-03-02T04:11:06;6.8;64.0
85940;DHT22;76505;46.706;12.340;2024-03-02T04:11:59;6.8;64.0
85940;DHT22;76505;46.706;12.340;2024-03-02T04:12:59;6.8;63.9
85940;DHT22;76505;46.706;12.340;2024-03-02T04:13:59;6.7;64.0
85940;DHT22;76505;46.706;12.340;2024-03-02T04:14:59;6.8;63.9
85940;DHT22;76505;46.706;12.340;2024-03-02T04:15:59;6.7;63.9
85940;DHT22;76505;46.706;12.340;2024-03-02T04:16:59;6.8;63.9
85940;DHT22;76505;46.706;12.340;2024-03-02T04:17:59;6.7;64.0
85940;DHT22;76505;46.706;12.340;2024-03-02T04:18:59;6.7;64.0
85940;DHT22;76505;46.706;12.340;2024-03-02T04:19:59;6.8;63.8
85940;DHT22;76505;46.706;12.340;2024-03-02T04:21:00;6.7;64.0
85940;DHT22;76505;46.706;12.340;2024-03-02T04:21:59;6.7;63.9
85940;DHT22;76505;46.706;12.340;2024-03-02T04:22:59;6.7;64.0
85940;DHT22;76505;46.706;12.340;2024-03-02T04:24:05;6.7;64.0
85940;DHT22;76505;46.706;12.340;2024-03-02T04:25:00;6.7;63.9
85940;DHT22;76505;46.706;12.340;2024-03-02T04:25:59;6.7;64.0
85940;DHT22;76505;46.706;12.340;2024-03-02T04:26:59;6.7;64.2
85940;DHT22;76505;46.706;12.340;2024-03-02T04:27:59;6.7;64.1
85940;DHT22;76505;46.706;12.340;2024-03-02T04:28:59;6.7;64.1
85940;DHT22;76505;46.706;12.340;2024-03-02T04:30:00;6.7;64.1
85940;DHT22;76505;46.706;12.340;2024-03-02T04:30:59;6.7;64.0
85940;DHT22;76505;46.706;12.340;2024-03-02T04:31:59;6.7;64.2
85940;DHT22;76505;46.706;12.340;2024-03-02T04:32:59;6.7;63.9
85940;DHT22;76505;46.706;12.340;2024-03-02T04:33:59;6.7;63.9
85940;DHT22;76505;46.706;12.340;2024-03-02T04:34:59;6.8;64.0
85940;DHT22;76505;46.706;12.340;2024-03-02T04:35:59;6.8;64.2
85940;DHT22;76505;46.706;12.340;2024-03-02T04:36:59;6.8;64.2
85940;DHT22;76505;46.706;12.340;2024-03-02T04:37:59;6.7;64.4
85940;DHT22;76505;46.706;12.340;2024-03-02T04:38:59;6.7;64.6
85940;DHT22;76505;46.706;12.340;2024-03-02T04:39:59;6.6;64.8
85940;DHT22;76505;46.706;12.340;2024-03-02T04:40:59;6.7;64.9
85940;DHT22;76505;46.706;12.340;2024-03-02T04:41:59;6.8;64.7
85940;DHT22;76505;46.706;12.340;2024-03-02T04:43:00;6.7;64.8
85940;DHT22;76505;46.706;12.340;2024-03-02T04:43:59;6.7;64.9
85940;DHT22;76505;46.706;12.340;2024-03-02T04:45:00;6.7;64.8
85940;DHT22;76505;46.706;12.340;2024-03-02T04:45:59;6.7;64.8
85940;DHT22;76505;46.706;12.340;2024-03-02T04:46:59;6.7;64.8
85940;DHT22;76505;46.706;12.340;2024-03-02T04:47:59;6.6;64.6
85940;DHT22;76505;46.706;12.340;2024-03-02T04:48:59;6.7;64.8
85940;DHT22;76505;46.706;12.340;2024-03-02T04:50:00;6.7;64.6
85940;DHT22;76505;46.706;12.340;2024-03-02T04:50:59;6.7;64.6
85940;DHT22;76505;46.706;12.340;2024-03-02T04:51:59;6.6;64.5
85940;DHT22;76505;46.706;12.340;2024-03-02T04:52:59;6.5;64.6
85940;DHT22;76505;46.706;12.340;2024-03-02T04:53:59;6.6;64.6
85940;DHT22;76505;46.706;12.340;2024-03-02T04:55:54;6.6;64.7
85940;DHT22;76505;46.706;12.340;2024-03-02T04:56:59;6.6;64.4
85940;DHT22;76505;46.706;12.340;2024-03-02T04:57:59;6.6;64.7
85940;DHT22;76505;46.706;12.340;2024-03-02T04:58:59;6.5;64.4
85940;DHT22;76505;46.706;12.340;2024-03-02T04:59:59;6.6;64.3
85940;DHT22;76505;46.706;12.340;2024-03-02T05:00:59;6.6;64.2
85940;DHT22;76505;46.706;12.340;2024-03-02T05:01:59;6.6;64.1
85940;DHT22;76505;46.706;12.340;2024-03-02T05:02:59;6.6;64.1
85940;DHT22;76505;46.706;12.340;2024-03-02T05:03:59;6.6;63.9
85940;DHT22;76505;46.706;12.340;2024-03-02T05:04:59;6.6;63.9
85940;DHT22;76505;46.706;12.340;2024-03-02T05:05:59;6.6;63.8
85940;DHT22;76505;46.706;12.340;2024-03-02T05:06:59;6.6;63.6
85940;DHT22;76505;46.706;12.340;2024-03-02T05:07:59;6.6;63.5
85940;DHT22;76505;46.706;12.340;2024-03-02T05:08:59;6.6;63.7
85940;DHT22;76505;46.706;12.340;2024-03-02T05:10:00;6.5;63.8
85940;DHT22;76505;46.706;12.340;2024-03-02T05:11:34;6.5;63.7
85940;DHT22;76505;46.706;12.340;2024-03-02T05:12:17;6.5;63.4
85940;DHT22;76505;46.706;12.340;2024-03-02T05:13:00;6.5;63.4
85940;DHT22;76505;46.706;12.340;2024-03-02T05:13:59;6.4;63.6
85940;DHT22;76505;46.706;12.340;2024-03-02T05:14:59;6.5;63.5
85940;DHT22;76505;46.706;12.340;2024-03-02T05:15:59;6.4;63.2
85940;DHT22;76505;46.706;12.340;2024-03-02T05:16:59;6.4;63.4
85940;DHT22;76505;46.706;12.340;2024-03-02T05:18:00;6.3;63.5
85940;DHT22;76505;46.706;12.340;2024-03-02T05:19:02;6.3;63.4
85940;DHT22;76505;46.706;12.340;2024-03-02T05:19:59;6.4;63.4
85940;DHT22;76505;46.706;12.340;2024-03-02T05:21:00;6.3;63.3
85940;DHT22;76505;46.706;12.340;2024-03-02T05:21:59;6.3;63.4
85940;DHT22;76505;46.706;12.340;2024-03-02T05:22:59;6.3;63.5
85940;DHT22;76505;46.706;12.340;2024-03-02T05:23:59;6.4;63.4
85940;DHT22;76505;46.706;12.340;2024-03-02T05:25:00;6.3;63.4
85940;DHT22;76505;46.706;12.340;2024-03-02T05:26:05;6.3;63.3
85940;DHT22;76505;46.706;12.340;2024-03-02T05:27:00;6.2;63.5
85940;DHT22;76505;46.706;12.340;2024-03-02T05:27:59;6.1;63.8
85940;DHT22;76505;46.706;12.340;2024-03-02T05:28:59;6.2;63.5
85940;DHT22;76505;46.706;12.340;2024-03-02T05:30:00;6.1;63.9
85940;DHT22;76505;46.706;12.340;2024-03-02T05:30:59;6.1;63.6
85940;DHT22;76505;46.706;12.340;2024-03-02T05:31:59;6.2;63.5
85940;DHT22;76505;46.706;12.340;2024-03-02T05:32:59;6.3;63.7
85940;DHT22;76505;46.706;12.340;2024-03-02T05:34:00;6.1;63.6
85940;DHT22;76505;46.706;12.340;2024-03-02T05:34:59;6.1;63.5
85940;DHT22;76505;46.706;12.340;2024-03-02T05:35:59;6.0;63.5
85940;DHT22;76505;46.706;12.340;2024-03-02T05:36:59;6.2;63.3
85940;DHT22;76505;46.706;12.340;2024-03-02T05:37:59;6.1;63.2
85940;DHT22;76505;46.706;12.340;2024-03-02T05:38:59;6.1;63.1
85940;DHT22;76505;46.706;12.340;2024-03-02T05:40:00;6.1;63.1
85940;DHT22;76505;46.706;12.340;2024-03-02T05:40:59;6.1;62.7
85940;DHT22;76505;46.706;12.340;2024-03-02T05:42:05;6.1;62.9
85940;DHT22;76505;46.706;12.340;2024-03-02T05:42:59;6.1;62.7
85940;DHT22;76505;46.706;12.340;2024-03-02T05:43:59;6.1;62.5
85940;DHT22;76505;46.706;12.340;2024-03-02T05:44:59;6.1;62.5
85940;DHT22;76505;46.706;12.340;2024-03-02T05:45:59;6.1;62.1
85940;DHT22;76505;46.706;12.340;2024-03-02T05:46:59;6.1;62.5
85940;DHT22;76505;46.706;12.340;2024-03-02T05:47:59;6.1;62.4
85940;DHT22;76505;46.706;12.340;2024-03-02T05:48:59;6.1;62.3
85940;DHT22;76505;46.706;12.340;2024-03-02T05:49:59;6.0;62.9
85940;DHT22;76505;46.706;12.340;2024-03-02T05:50:59;6.1;62.4
85940;DHT22;76505;46.706;12.340;2024-03-02T05:51:59;6.0;62.3
85940;DHT22;76505;46.706;12.340;2024-03-02T05:52:59;6.0;62.8
85940;DHT22;76505;46.706;12.340;2024-03-02T05:53:59;6.1;62.8
85940;DHT22;76505;46.706;12.340;2024-03-02T05:55:00;6.0;62.8
85940;DHT22;76505;46.706;12.340;2024-03-02T05:55:59;6.0;62.8
85940;DHT22;76505;46.706;12.340;2024-03-02T05:57:17;6.0;63.2
85940;DHT22;76505;46.706;12.340;2024-03-02T05:58:13;5.9;63.5
85940;DHT22;76505;46.706;12.340;2024-03-02T05:59:11;6.0;63.4
85940;DHT22;76505;46.706;12.340;2024-03-02T05:59:59;5.9;63.5
85940;DHT22;76505;46.706;12.340;2024-03-02T06:00:59;5.9;63.4
85940;DHT22;76505;46.706;12.340;2024-03-02T06:01:59;5.9;63.5
85940;DHT22;76505;46.706;12.340;2024-03-02T06:02:59;5.9;63.6
85940;DHT22;76505;46.706;12.340;2024-03-02T06:03:59;5.9;63.3
85940;DHT22;76505;46.706;12.340;2024-03-02T06:05:05;6.0;63.4
85940;DHT22;76505;46.706;12.340;2024-03-02T06:06:00;5.9;63.3
85940;DHT22;76505;46.706;12.340;2024-03-02T06:06:59;5.9;63.4
85940;DHT22;76505;46.706;12.340;2024-03-02T06:07:59;6.0;63.6
85940;DHT22;76505;46.706;12.340;2024-03-02T06:08:59;6.0;63.5
85940;DHT22;76505;46.706;12.340;2024-03-02T06:10:03;5.9;63.4
85940;DHT22;76505;46.706;12.340;2024-03-02T06:11:00;5.9;63.3
85940;DHT22;76505;46.706;12.340;2024-03-02T06:12:02;5.9;63.5
85940;DHT22;76505;46.706;12.340;2024-03-02T06:13:00;5.8;63.6
85940;DHT22;76505;46.706;12.340;2024-03-02T06:14:00;5.8;63.5
85940;DHT22;76505;46.706;12.340;2024-03-02T06:15:00;5.9;63.9
85940;DHT22;76505;46.706;12.340;2024-03-02T06:16:06;5.9;63.6
85940;DHT22;76505;46.706;12.340;2024-03-02T06:17:00;5.8;63.6
85940;DHT22;76505;46.706;12.340;2024-03-02T06:18:00;5.8;63.5
85940;DHT22;76505;46.706;12.340;2024-03-02T06:19:00;5.8;63.7
85940;DHT22;76505;46.706;12.340;2024-03-02T06:20:02;5.8;63.6
85940;DHT22;76505;46.706;12.340;2024-03-02T06:21:01;5.8;63.5
85940;DHT22;76505;46.706;12.340;2024-03-02T06:22:00;5.8;63.6
85940;DHT22;76505;46.706;12.340;2024-03-02T06:23:00;5.8;63.1
85940;DHT22;76505;46.706;12.340;2024-03-02T06:24:00;5.9;63.3
85940;DHT22;76505;46.706;12.340;2024-03-02T06:25:00;5.8;63.1
85940;DHT22;76505;46.706;12.340;2024-03-02T06:26:05;5.9;62.7
85940;DHT22;76505;46.706;12.340;2024-03-02T06:27:00;5.9;62.5
85940;DHT22;76505;46.706;12.340;2024-03-02T06:28:00;5.9;62.7
85940;DHT22;76505;46.706;12.340;2024-03-02T06:29:01;5.8;62.7
85940;DHT22;76505;46.706;12.340;2024-03-02T06:30:00;5.9;62.8
85940;DHT22;76505;46.706;12.340;2024-03-02T06:31:01;5.8;62.7
85940;DHT22;76505;46.706;12.340;2024-03-02T06:32:00;5.9;63.2
85940;DHT22;76505;46.706;12.340;2024-03-02T06:33:00;5.9;63.0